sensor_id;sensor_type;location;lat;lon;timestamp;temperature;humidity
5334;DHT22;2689;50.954;7.116;2023-07-16T00:00:40;21.10;99.90
5334;DHT22;2689;50.954;7.116;2023-07-16T00:03:07;21.10;99.90
5334;DHT22;2689;50.954;7.116;2023-07-16T00:05:36;21.00;99.90
5334;DHT22;2689;50.954;7.116;2023-07-16T00:08:03;21.00;99.70
5334;DHT22;2689;50.954;7.116;2023-07-16T00:10:33;21.00;99.80
5334;DHT22;2689;50.954;7.116;2023-07-16T00:13:00;20.90;99.90
5334;DHT22;2689;50.954;7.116;2023-07-16T00:15:27;20.90;99.90
5334;DHT22;2689;50.954;7.116;2023-07-16T00:17:55;21.00;99.60
5334;DHT22;2689;50.954;7.116;2023-07-16T00:20:22;21.00;99.20
5334;DHT22;2689;50.954;7.116;2023-07-16T00:22:49;21.00;99.00
5334;DHT22;2689;50.954;7.116;2023-07-16T00:25:16;21.00;98.80
5334;DHT22;2689;50.954;7.116;2023-07-16T00:27:42;21.00;98.90
5334;DHT22;2689;50.954;7.116;2023-07-16T00:30:10;21.00;99.20
5334;DHT22;2689;50.954;7.116;2023-07-16T00:32:36;21.00;98.80
5334;DHT22;2689;50.954;7.116;2023-07-16T00:35:05;21.10;98.60
5334;DHT22;2689;50.954;7.116;2023-07-16T00:37:33;21.10;98.90
5334;DHT22;2689;50.954;7.116;2023-07-16T00:40:00;21.00;98.90
5334;DHT22;2689;50.954;7.116;2023-07-16T00:42:27;21.00;98.80
5334;DHT22;2689;50.954;7.116;2023-07-16T00:44:53;20.90;98.90
5334;DHT22;2689;50.954;7.116;2023-07-16T00:47:21;20.90;98.90
5334;DHT22;2689;50.954;7.116;2023-07-16T00:49:48;21.00;98.90
5334;DHT22;2689;50.954;7.116;2023-07-16T00:52:18;21.00;98.70
5334;DHT22;2689;50.954;7.116;2023-07-16T00:54:45;20.90;98.80
5334;DHT22;2689;50.954;7.116;2023-07-16T00:57:12;20.90;99.10
5334;DHT22;2689;50.954;7.116;2023-07-16T00:59:39;20.90;99.20
5334;DHT22;2689;50.954;7.116;2023-07-16T01:02:06;20.80;99.00
5334;DHT22;2689;50.954;7.116;2023-07-16T01:04:35;20.80;99.00
5334;DHT22;2689;50.954;7.116;2023-07-16T01:07:04;20.80;99.00
5334;DHT22;2689;50.954;7.116;2023-07-16T01:09:35;20.80;99.10
5334;DHT22;2689;50.954;7.116;2023-07-16T01:12:05;20.80;99.10
5334;DHT22;2689;50.954;7.116;2023-07-16T01:14:32;20.70;99.00
5334;DHT22;2689;50.954;7.116;2023-07-16T01:17:02;20.70;99.40
5334;DHT22;2689;50.954;7.116;2023-07-16T01:19:29;20.60;99.50
5334;DHT22;2689;50.954;7.116;2023-07-16T01:22:17;20.50;99.70
5334;DHT22;2689;50.954;7.116;2023-07-16T01:25:00;20.40;99.90
5334;DHT22;2689;50.954;7.116;2023-07-16T01:27:50;20.40;99.90
5334;DHT22;2689;50.954;7.116;2023-07-16T01:30:31;20.20;99.90
5334;DHT22;2689;50.954;7.116;2023-07-16T01:33:01;20.20;99.90
5334;DHT22;2689;50.954;7.116;2023-07-16T01:35:28;20.10;99.90
5334;DHT22;2689;50.954;7.116;2023-07-16T01:37:55;20.00;99.90
5334;DHT22;2689;50.954;7.116;2023-07-16T01:40:22;19.80;99.90
5334;DHT22;2689;50.954;7.116;2023-07-16T01:42:49;19.70;99.90
5334;DHT22;2689;50.954;7.116;2023-07-16T01:45:18;19.60;99.90
5334;DHT22;2689;50.954;7.116;2023-07-16T01:47:59;19.50;99.90
5334;DHT22;2689;50.954;7.116;2023-07-16T01:50:26;19.40;99.90
5334;DHT22;2689;50.954;7.116;2023-07-16T01:52:53;19.40;99.90
5334;DHT22;2689;50.954;7.116;2023-07-16T01:55:20;19.30;99.90
5334;DHT22;2689;50.954;7.116;2023-07-16T01:57:46;19.30;99.90
5334;DHT22;2689;50.954;7.116;2023-07-16T02:00:13;19.20;99.90
5334;DHT22;2689;50.954;7.116;2023-07-16T02:02:40;19.10;99.90
5334;DHT22;2689;50.954;7.116;2023-07-16T02:05:08;19.10;99.90
5334;DHT22;2689;50.954;7.116;2023-07-16T02:07:35;19.10;99.90
5334;DHT22;2689;50.954;7.116;2023-07-16T02:10:05;19.00;99.90
5334;DHT22;2689;50.954;7.116;2023-07-16T02:12:33;18.90;99.90
5334;DHT22;2689;50.954;7.116;2023-07-16T02:15:02;18.90;99.90
5334;DHT22;2689;50.954;7.116;2023-07-16T02:17:29;18.90;99.90
5334;DHT22;2689;50.954;7.116;2023-07-16T02:19:56;18.80;99.90
5334;DHT22;2689;50.954;7.116;2023-07-16T02:22:24;18.70;99.90
5334;DHT22;2689;50.954;7.116;2023-07-16T02:24:51;18.60;99.90
5334;DHT22;2689;50.954;7.116;2023-07-16T02:27:18;18.70;99.90
5334;DHT22;2689;50.954;7.116;2023-07-16T02:29:44;18.70;99.90
5334;DHT22;2689;50.954;7.116;2023-07-16T02:32:13;18.60;99.90
5334;DHT22;2689;50.954;7.116;2023-07-16T02:34:40;18.60;99.90
5334;DHT22;2689;50.954;7.116;2023-07-16T02:37:07;18.50;99.90
5334;DHT22;2689;50.954;7.116;2023-07-16T02:39:35;18.50;99.90
5334;DHT22;2689;50.954;7.116;2023-07-16T02:42:05;18.50;99.90
5334;DHT22;2689;50.954;7.116;2023-07-16T02:44:31;18.40;99.90
5334;DHT22;2689;50.954;7.116;2023-07-16T02:46:58;18.40;99.90
5334;DHT22;2689;50.954;7.116;2023-07-16T02:49:26;18.40;99.90
5334;DHT22;2689;50.954;7.116;2023-07-16T02:51:54;18.50;99.90
5334;DHT22;2689;50.954;7.116;2023-07-16T02:54:21;18.50;99.90
5334;DHT22;2689;50.954;7.116;2023-07-16T02:56:49;18.50;99.90
5334;DHT22;2689;50.954;7.116;2023-07-16T02:59:15;18.50;99.90
5334;DHT22;2689;50.954;7.116;2023-07-16T03:01:42;18.50;99.90
5334;DHT22;2689;50.954;7.116;2023-07-16T03:04:09;18.40;99.90
5334;DHT22;2689;50.954;7.116;2023-07-16T03:06:36;18.40;99.90
5334;DHT22;2689;50.954;7.116;2023-07-16T03:09:03;18.40;99.90
5334;DHT22;2689;50.954;7.116;2023-07-16T03:11:29;18.40;99.90
5334;DHT22;2689;50.954;7.116;2023-07-16T03:13:58;18.40;99.90
5334;DHT22;2689;50.954;7.116;2023-07-16T03:16:24;18.40;99.90
5334;DHT22;2689;50.954;7.116;2023-07-16T03:18:54;18.30;99.90
5334;DHT22;2689;50.954;7.116;2023-07-16T03:21:21;18.30;99.90
5334;DHT22;2689;50.954;7.116;2023-07-16T03:23:47;18.30;99.90
5334;DHT22;2689;50.954;7.116;2023-07-16T03:26:15;18.30;99.90
5334;DHT22;2689;50.954;7.116;2023-07-16T03:28:42;18.30;99.90
5334;DHT22;2689;50.954;7.116;2023-07-16T03:31:10;18.20;99.90
5334;DHT22;2689;50.954;7.116;2023-07-16T03:33:36;18.30;99.90
5334;DHT22;2689;50.954;7.116;2023-07-16T03:36:04;18.30;99.90
5334;DHT22;2689;50.954;7.116;2023-07-16T03:38:30;18.30;99.90
5334;DHT22;2689;50.954;7.116;2023-07-16T03:40:57;18.30;99.90
5334;DHT22;2689;50.954;7.116;2023-07-16T03:43:24;18.30;99.90
5334;DHT22;2689;50.954;7.116;2023-07-16T03:45:50;18.30;99.90
5334;DHT22;2689;50.954;7.116;2023-07-16T03:48:19;18.20;99.90
5334;DHT22;2689;50.954;7.116;2023-07-16T03:50:46;18.20;99.90
5334;DHT22;2689;50.954;7.116;2023-07-16T03:53:13;18.10;99.90
5334;DHT22;2689;50.954;7.116;2023-07-16T03:55:40;18.10;99.90
5334;DHT22;2689;50.954;7.116;2023-07-16T03:58:06;18.10;99.90
5334;DHT22;2689;50.954;7.116;2023-07-16T04:00:33;18.00;99.90
5334;DHT22;2689;50.954;7.116;2023-07-16T04:03:00;18.00;99.90
5334;DHT22;2689;50.954;7.116;2023-07-16T04:05:31;18.00;99.90
5334;DHT22;2689;50.954;7.116;2023-07-16T04:07:57;17.90;99.90
5334;DHT22;2689;50.954;7.116;2023-07-16T04:10:24;17.90;99.90
5334;DHT22;2689;50.954;7.116;2023-07-16T04:12:51;17.90;99.90
5334;DHT22;2689;50.954;7.116;2023-07-16T04:15:18;17.80;99.90
5334;DHT22;2689;50.954;7.116;2023-07-16T04:17:45;17.70;99.90
5334;DHT22;2689;50.954;7.116;2023-07-16T04:20:12;17.70;99.90
5334;DHT22;2689;50.954;7.116;2023-07-16T04:22:40;17.60;99.90
5334;DHT22;2689;50.954;7.116;2023-07-16T04:25:07;17.60;99.90
5334;DHT22;2689;50.954;7.116;2023-07-16T04:27:34;17.60;99.90
5334;DHT22;2689;50.954;7.116;2023-07-16T04:30:01;17.50;99.90
5334;DHT22;2689;50.954;7.116;2023-07-16T04:32:28;17.50;99.90
5334;DHT22;2689;50.954;7.116;2023-07-16T04:34:55;17.50;99.90
5334;DHT22;2689;50.954;7.116;2023-07-16T04:37:21;17.60;99.90
5334;DHT22;2689;50.954;7.116;2023-07-16T04:39:50;17.50;99.90
5334;DHT22;2689;50.954;7.116;2023-07-16T04:42:17;17.50;99.90
5334;DHT22;2689;50.954;7.116;2023-07-16T04:44:46;17.50;99.90
5334;DHT22;2689;50.954;7.116;2023-07-16T04:47:13;17.60;99.90
5334;DHT22;2689;50.954;7.116;2023-07-16T04:49:40;17.60;99.90
5334;DHT22;2689;50.954;7.116;2023-07-16T04:52:07;17.60;99.90
5334;DHT22;2689;50.954;7.116;2023-07-16T04:54:37;17.60;99.90
5334;DHT22;2689;50.954;7.116;2023-07-16T04:57:06;17.70;99.90
5334;DHT22;2689;50.954;7.116;2023-07-16T04:59:34;17.70;99.90
5334;DHT22;2689;50.954;7.116;2023-07-16T05:02:04;17.70;99.90
5334;DHT22;2689;50.954;7.116;2023-07-16T05:04:31;17.70;99.90
5334;DHT22;2689;50.954;7.116;2023-07-16T05:06:58;17.80;99.90
5334;DHT22;2689;50.954;7.116;2023-07-16T05:09:24;17.90;99.90
5334;DHT22;2689;50.954;7.116;2023-07-16T05:11:51;17.90;99.90
5334;DHT22;2689;50.954;7.116;2023-07-16T05:14:19;18.00;99.90
5334;DHT22;2689;50.954;7.116;2023-07-16T05:16:46;18.00;99.90
5334;DHT22;2689;50.954;7.116;2023-07-16T05:19:13;18.00;99.90
5334;DHT22;2689;50.954;7.116;2023-07-16T05:21:39;18.20;99.90
5334;DHT22;2689;50.954;7.116;2023-07-16T05:24:06;18.20;99.90
5334;DHT22;2689;50.954;7.116;2023-07-16T05:26:33;18.30;99.90
5334;DHT22;2689;50.954;7.116;2023-07-16T05:29:00;18.20;99.90
5334;DHT22;2689;50.954;7.116;2023-07-16T05:31:28;18.30;99.90
5334;DHT22;2689;50.954;7.116;2023-07-16T05:33:55;18.30;99.90
5334;DHT22;2689;50.954;7.116;2023-07-16T05:36:24;18.30;99.90
5334;DHT22;2689;50.954;7.116;2023-07-16T05:38:51;18.40;99.90
5334;DHT22;2689;50.954;7.116;2023-07-16T05:41:17;18.50;99.90
5334;DHT22;2689;50.954;7.116;2023-07-16T05:43:44;18.60;99.90
5334;DHT22;2689;50.954;7.116;2023-07-16T05:46:11;18.60;99.90
5334;DHT22;2689;50.954;7.116;2023-07-16T05:48:39;18.70;99.90
5334;DHT22;2689;50.954;7.116;2023-07-16T05:51:06;18.80;99.90
5334;DHT22;2689;50.954;7.116;2023-07-16T05:53:33;18.80;99.90
5334;DHT22;2689;50.954;7.116;2023-07-16T05:55:59;18.80;99.90
5334;DHT22;2689;50.954;7.116;2023-07-16T05:58:26;18.90;99.50
5334;DHT22;2689;50.954;7.116;2023-07-16T06:00:53;19.00;98.60
5334;DHT22;2689;50.954;7.116;2023-07-16T06:03:20;19.00;97.40
5334;DHT22;2689;50.954;7.116;2023-07-16T06:05:48;19.10;97.30
5334;DHT22;2689;50.954;7.116;2023-07-16T06:08:14;19.10;96.40
5334;DHT22;2689;50.954;7.116;2023-07-16T06:10:41;19.20;96.30
5334;DHT22;2689;50.954;7.116;2023-07-16T06:13:08;19.20;96.10
5334;DHT22;2689;50.954;7.116;2023-07-16T06:15:36;19.30;95.60
5334;DHT22;2689;50.954;7.116;2023-07-16T06:18:03;19.30;95.40
5334;DHT22;2689;50.954;7.116;2023-07-16T06:20:29;19.40;95.50
5334;DHT22;2689;50.954;7.116;2023-07-16T06:22:57;19.40;94.90
5334;DHT22;2689;50.954;7.116;2023-07-16T06:25:24;19.40;94.70
5334;DHT22;2689;50.954;7.116;2023-07-16T06:27:51;19.50;95.00
5334;DHT22;2689;50.954;7.116;2023-07-16T06:30:18;19.50;94.40
5334;DHT22;2689;50.954;7.116;2023-07-16T06:32:45;19.50;94.30
5334;DHT22;2689;50.954;7.116;2023-07-16T06:35:11;19.60;93.80
5334;DHT22;2689;50.954;7.116;2023-07-16T06:37:38;19.80;93.40
5334;DHT22;2689;50.954;7.116;2023-07-16T06:40:07;19.90;93.20
5334;DHT22;2689;50.954;7.116;2023-07-16T06:42:34;20.00;92.40
5334;DHT22;2689;50.954;7.116;2023-07-16T06:45:04;20.10;92.20
5334;DHT22;2689;50.954;7.116;2023-07-16T06:47:31;20.20;91.60
5334;DHT22;2689;50.954;7.116;2023-07-16T06:49:58;20.30;90.90
5334;DHT22;2689;50.954;7.116;2023-07-16T06:52:24;20.30;90.70
5334;DHT22;2689;50.954;7.116;2023-07-16T06:54:53;20.20;90.30
5334;DHT22;2689;50.954;7.116;2023-07-16T06:57:21;20.20;90.20
5334;DHT22;2689;50.954;7.116;2023-07-16T06:59:54;20.20;90.60
5334;DHT22;2689;50.954;7.116;2023-07-16T07:02:20;20.30;90.30
5334;DHT22;2689;50.954;7.116;2023-07-16T07:04:47;20.40;89.00
5334;DHT22;2689;50.954;7.116;2023-07-16T07:07:14;20.50;90.40
5334;DHT22;2689;50.954;7.116;2023-07-16T07:09:41;20.60;89.30
5334;DHT22;2689;50.954;7.116;2023-07-16T07:12:08;20.60;87.30
5334;DHT22;2689;50.954;7.116;2023-07-16T07:14:36;20.70;86.80
5334;DHT22;2689;50.954;7.116;2023-07-16T07:17:03;20.80;85.10
5334;DHT22;2689;50.954;7.116;2023-07-16T07:19:30;21.00;83.80
5334;DHT22;2689;50.954;7.116;2023-07-16T07:21:57;21.00;83.20
5334;DHT22;2689;50.954;7.116;2023-07-16T07:24:24;21.10;82.30
5334;DHT22;2689;50.954;7.116;2023-07-16T07:26:51;21.10;81.40
5334;DHT22;2689;50.954;7.116;2023-07-16T07:29:18;21.10;81.50
5334;DHT22;2689;50.954;7.116;2023-07-16T07:31:46;21.00;80.50
5334;DHT22;2689;50.954;7.116;2023-07-16T07:34:13;21.10;80.50
5334;DHT22;2689;50.954;7.116;2023-07-16T07:36:39;21.20;80.10
5334;DHT22;2689;50.954;7.116;2023-07-16T07:39:07;21.20;79.30
5334;DHT22;2689;50.954;7.116;2023-07-16T07:41:33;21.40;79.10
5334;DHT22;2689;50.954;7.116;2023-07-16T07:44:02;21.40;78.40
5334;DHT22;2689;50.954;7.116;2023-07-16T07:46:29;21.40;77.90
5334;DHT22;2689;50.954;7.116;2023-07-16T07:48:57;21.40;76.80
5334;DHT22;2689;50.954;7.116;2023-07-16T07:51:24;21.40;76.70
5334;DHT22;2689;50.954;7.116;2023-07-16T07:53:51;21.60;77.20
5334;DHT22;2689;50.954;7.116;2023-07-16T07:56:17;21.80;75.50
5334;DHT22;2689;50.954;7.116;2023-07-16T07:58:44;21.90;74.90
5334;DHT22;2689;50.954;7.116;2023-07-16T08:01:11;21.80;75.00
5334;DHT22;2689;50.954;7.116;2023-07-16T08:03:38;21.90;74.60
5334;DHT22;2689;50.954;7.116;2023-07-16T08:06:06;22.10;73.60
5334;DHT22;2689;50.954;7.116;2023-07-16T08:08:33;22.00;72.40
5334;DHT22;2689;50.954;7.116;2023-07-16T08:11:00;22.10;72.00
5334;DHT22;2689;50.954;7.116;2023-07-16T08:13:27;22.20;72.30
5334;DHT22;2689;50.954;7.116;2023-07-16T08:15:56;22.20;72.30
5334;DHT22;2689;50.954;7.116;2023-07-16T08:18:22;22.40;70.90
5334;DHT22;2689;50.954;7.116;2023-07-16T08:20:49;22.50;71.00
5334;DHT22;2689;50.954;7.116;2023-07-16T08:23:17;22.60;71.10
5334;DHT22;2689;50.954;7.116;2023-07-16T08:25:44;22.50;69.30
5334;DHT22;2689;50.954;7.116;2023-07-16T08:28:11;22.50;69.20
5334;DHT22;2689;50.954;7.116;2023-07-16T08:30:38;22.70;68.90
5334;DHT22;2689;50.954;7.116;2023-07-16T08:33:04;23.10;69.70
5334;DHT22;2689;50.954;7.116;2023-07-16T08:35:31;23.50;67.20
5334;DHT22;2689;50.954;7.116;2023-07-16T08:37:58;23.70;65.80
5334;DHT22;2689;50.954;7.116;2023-07-16T08:40:26;23.70;65.20
5334;DHT22;2689;50.954;7.116;2023-07-16T08:42:53;23.90;65.80
5334;DHT22;2689;50.954;7.116;2023-07-16T08:45:21;24.10;65.30
5334;DHT22;2689;50.954;7.116;2023-07-16T08:47:49;24.50;64.70
5334;DHT22;2689;50.954;7.116;2023-07-16T08:50:17;24.50;60.70
5334;DHT22;2689;50.954;7.116;2023-07-16T08:52:45;24.80;60.90
5334;DHT22;2689;50.954;7.116;2023-07-16T08:55:12;25.30;59.50
5334;DHT22;2689;50.954;7.116;2023-07-16T08:57:41;26.10;58.10
5334;DHT22;2689;50.954;7.116;2023-07-16T09:00:10;26.40;56.40
5334;DHT22;2689;50.954;7.116;2023-07-16T09:02:37;27.40;54.20
5334;DHT22;2689;50.954;7.116;2023-07-16T09:05:04;27.80;51.60
5334;DHT22;2689;50.954;7.116;2023-07-16T09:07:31;28.50;51.20
5334;DHT22;2689;50.954;7.116;2023-07-16T09:09:59;29.40;50.60
5334;DHT22;2689;50.954;7.116;2023-07-16T09:12:26;30.00;48.80
5334;DHT22;2689;50.954;7.116;2023-07-16T09:14:56;30.50;47.20
5334;DHT22;2689;50.954;7.116;2023-07-16T09:17:24;31.30;44.60
5334;DHT22;2689;50.954;7.116;2023-07-16T09:19:51;30.60;44.00
5334;DHT22;2689;50.954;7.116;2023-07-16T09:22:18;30.20;44.90
5334;DHT22;2689;50.954;7.116;2023-07-16T09:24:47;29.70;45.10
5334;DHT22;2689;50.954;7.116;2023-07-16T09:27:14;28.70;45.90
5334;DHT22;2689;50.954;7.116;2023-07-16T09:29:41;28.00;48.00
5334;DHT22;2689;50.954;7.116;2023-07-16T09:32:09;27.90;48.80
5334;DHT22;2689;50.954;7.116;2023-07-16T09:34:36;28.40;49.00
5334;DHT22;2689;50.954;7.116;2023-07-16T09:37:05;28.90;48.20
5334;DHT22;2689;50.954;7.116;2023-07-16T09:39:32;28.80;46.60
5334;DHT22;2689;50.954;7.116;2023-07-16T09:42:00;29.40;48.30
5334;DHT22;2689;50.954;7.116;2023-07-16T09:44:35;29.70;45.30
5334;DHT22;2689;50.954;7.116;2023-07-16T09:47:04;28.40;47.00
5334;DHT22;2689;50.954;7.116;2023-07-16T09:49:37;27.20;49.40
5334;DHT22;2689;50.954;7.116;2023-07-16T09:52:18;26.90;51.00
5334;DHT22;2689;50.954;7.116;2023-07-16T09:54:46;28.10;49.40
5334;DHT22;2689;50.954;7.116;2023-07-16T09:57:15;28.40;48.20
5334;DHT22;2689;50.954;7.116;2023-07-16T09:59:44;28.30;48.20
5334;DHT22;2689;50.954;7.116;2023-07-16T10:02:12;28.70;47.20
5334;DHT22;2689;50.954;7.116;2023-07-16T10:04:40;28.30;48.20
5334;DHT22;2689;50.954;7.116;2023-07-16T10:07:07;27.70;48.50
5334;DHT22;2689;50.954;7.116;2023-07-16T10:09:51;27.50;50.00
5334;DHT22;2689;50.954;7.116;2023-07-16T10:12:21;27.90;49.50
5334;DHT22;2689;50.954;7.116;2023-07-16T10:14:50;28.70;49.10
5334;DHT22;2689;50.954;7.116;2023-07-16T10:17:22;29.80;47.50
5334;DHT22;2689;50.954;7.116;2023-07-16T10:19:59;29.80;45.00
5334;DHT22;2689;50.954;7.116;2023-07-16T10:22:35;30.00;45.90
5334;DHT22;2689;50.954;7.116;2023-07-16T10:25:05;30.00;45.20
5334;DHT22;2689;50.954;7.116;2023-07-16T10:27:34;29.60;45.50
5334;DHT22;2689;50.954;7.116;2023-07-16T10:30:01;29.10;46.60
5334;DHT22;2689;50.954;7.116;2023-07-16T10:32:30;29.40;47.10
5334;DHT22;2689;50.954;7.116;2023-07-16T10:34:59;30.00;46.20
5334;DHT22;2689;50.954;7.116;2023-07-16T10:37:26;31.50;44.00
5334;DHT22;2689;50.954;7.116;2023-07-16T10:39:54;31.10;42.50
5334;DHT22;2689;50.954;7.116;2023-07-16T10:42:23;30.30;42.90
5334;DHT22;2689;50.954;7.116;2023-07-16T10:44:52;29.90;43.20
5334;DHT22;2689;50.954;7.116;2023-07-16T10:47:21;29.90;43.80
5334;DHT22;2689;50.954;7.116;2023-07-16T10:49:48;30.10;43.30
5334;DHT22;2689;50.954;7.116;2023-07-16T10:52:19;29.40;44.60
5334;DHT22;2689;50.954;7.116;2023-07-16T10:54:46;28.80;45.90
5334;DHT22;2689;50.954;7.116;2023-07-16T10:57:14;28.50;47.10
5334;DHT22;2689;50.954;7.116;2023-07-16T10:59:42;29.30;46.00
5334;DHT22;2689;50.954;7.116;2023-07-16T11:02:12;30.00;43.60
5334;DHT22;2689;50.954;7.116;2023-07-16T11:04:39;29.80;43.60
5334;DHT22;2689;50.954;7.116;2023-07-16T11:07:08;29.20;44.20
5334;DHT22;2689;50.954;7.116;2023-07-16T11:09:40;28.70;45.90
5334;DHT22;2689;50.954;7.116;2023-07-16T11:12:09;28.50;45.40
5334;DHT22;2689;50.954;7.116;2023-07-16T11:14:36;27.60;46.40
5334;DHT22;2689;50.954;7.116;2023-07-16T11:17:06;27.30;47.80
5334;DHT22;2689;50.954;7.116;2023-07-16T11:19:34;26.80;47.60
5334;DHT22;2689;50.954;7.116;2023-07-16T11:22:03;26.30;48.40
5334;DHT22;2689;50.954;7.116;2023-07-16T11:24:38;26.00;49.40
5334;DHT22;2689;50.954;7.116;2023-07-16T11:27:06;26.20;50.00
5334;DHT22;2689;50.954;7.116;2023-07-16T11:29:36;26.10;49.80
5334;DHT22;2689;50.954;7.116;2023-07-16T11:32:03;25.90;49.50
5334;DHT22;2689;50.954;7.116;2023-07-16T11:34:30;25.80;50.40
5334;DHT22;2689;50.954;7.116;2023-07-16T11:37:07;25.70;50.80
5334;DHT22;2689;50.954;7.116;2023-07-16T11:39:34;25.50;50.90
5334;DHT22;2689;50.954;7.116;2023-07-16T11:42:04;25.80;50.60
5334;DHT22;2689;50.954;7.116;2023-07-16T11:44:34;25.80;51.10
5334;DHT22;2689;50.954;7.116;2023-07-16T11:47:04;25.80;51.10
5334;DHT22;2689;50.954;7.116;2023-07-16T11:49:32;25.80;50.50
5334;DHT22;2689;50.954;7.116;2023-07-16T11:51:59;26.30;50.10
5334;DHT22;2689;50.954;7.116;2023-07-16T11:54:26;26.50;48.80
5334;DHT22;2689;50.954;7.116;2023-07-16T11:56:53;26.20;48.80
5334;DHT22;2689;50.954;7.116;2023-07-16T11:59:21;26.00;49.20
5334;DHT22;2689;50.954;7.116;2023-07-16T12:01:48;25.80;50.40
5334;DHT22;2689;50.954;7.116;2023-07-16T12:04:16;25.70;50.20
5334;DHT22;2689;50.954;7.116;2023-07-16T12:06:43;26.10;49.60
5334;DHT22;2689;50.954;7.116;2023-07-16T12:09:10;26.20;49.10
5334;DHT22;2689;50.954;7.116;2023-07-16T12:11:37;26.00;50.20
5334;DHT22;2689;50.954;7.116;2023-07-16T12:14:05;26.00;50.20
5334;DHT22;2689;50.954;7.116;2023-07-16T12:16:33;26.00;50.60
5334;DHT22;2689;50.954;7.116;2023-07-16T12:19:00;26.20;49.80
5334;DHT22;2689;50.954;7.116;2023-07-16T12:21:26;26.30;50.10
5334;DHT22;2689;50.954;7.116;2023-07-16T12:23:53;26.30;49.70
5334;DHT22;2689;50.954;7.116;2023-07-16T12:26:20;26.20;49.90
5334;DHT22;2689;50.954;7.116;2023-07-16T12:28:47;26.20;49.30
5334;DHT22;2689;50.954;7.116;2023-07-16T12:31:14;26.90;49.20
5334;DHT22;2689;50.954;7.116;2023-07-16T12:33:43;26.90;48.30
5334;DHT22;2689;50.954;7.116;2023-07-16T12:36:10;26.50;48.50
5334;DHT22;2689;50.954;7.116;2023-07-16T12:38:37;26.30;49.00
5334;DHT22;2689;50.954;7.116;2023-07-16T12:41:06;26.10;50.10
5334;DHT22;2689;50.954;7.116;2023-07-16T12:43:33;26.00;50.20
5334;DHT22;2689;50.954;7.116;2023-07-16T12:46:00;25.90;50.20
5334;DHT22;2689;50.954;7.116;2023-07-16T12:48:28;26.00;50.60
5334;DHT22;2689;50.954;7.116;2023-07-16T12:50:56;26.10;49.40
5334;DHT22;2689;50.954;7.116;2023-07-16T12:53:24;26.20;49.80
5334;DHT22;2689;50.954;7.116;2023-07-16T12:55:51;26.20;49.90
5334;DHT22;2689;50.954;7.116;2023-07-16T12:58:18;26.20;48.90
5334;DHT22;2689;50.954;7.116;2023-07-16T13:00:44;25.90;49.40
5334;DHT22;2689;50.954;7.116;2023-07-16T13:03:12;25.70;50.80
5334;DHT22;2689;50.954;7.116;2023-07-16T13:05:42;25.70;50.40
5334;DHT22;2689;50.954;7.116;2023-07-16T13:08:10;25.70;50.60
5334;DHT22;2689;50.954;7.116;2023-07-16T13:10:37;25.80;50.80
5334;DHT22;2689;50.954;7.116;2023-07-16T13:13:05;25.80;50.90
5334;DHT22;2689;50.954;7.116;2023-07-16T13:15:33;26.00;50.80
5334;DHT22;2689;50.954;7.116;2023-07-16T13:18:00;26.60;50.20
5334;DHT22;2689;50.954;7.116;2023-07-16T13:20:29;26.90;48.80
5334;DHT22;2689;50.954;7.116;2023-07-16T13:22:56;27.00;49.00
5334;DHT22;2689;50.954;7.116;2023-07-16T13:25:25;27.50;48.10
5334;DHT22;2689;50.954;7.116;2023-07-16T13:27:52;27.50;47.90
5334;DHT22;2689;50.954;7.116;2023-07-16T13:30:21;27.10;47.70
5334;DHT22;2689;50.954;7.116;2023-07-16T13:32:48;26.80;49.60
5334;DHT22;2689;50.954;7.116;2023-07-16T13:35:15;26.60;49.50
5334;DHT22;2689;50.954;7.116;2023-07-16T13:37:42;26.30;48.90
5334;DHT22;2689;50.954;7.116;2023-07-16T13:40:09;26.00;49.40
5334;DHT22;2689;50.954;7.116;2023-07-16T13:42:39;25.90;50.40
5334;DHT22;2689;50.954;7.116;2023-07-16T13:45:07;25.70;50.30
5334;DHT22;2689;50.954;7.116;2023-07-16T13:47:34;25.70;50.30
5334;DHT22;2689;50.954;7.116;2023-07-16T13:50:01;26.10;50.10
5334;DHT22;2689;50.954;7.116;2023-07-16T13:52:27;26.50;49.20
5334;DHT22;2689;50.954;7.116;2023-07-16T13:54:54;26.70;49.20
5334;DHT22;2689;50.954;7.116;2023-07-16T13:57:21;26.90;48.90
5334;DHT22;2689;50.954;7.116;2023-07-16T13:59:49;27.00;48.00
5334;DHT22;2689;50.954;7.116;2023-07-16T14:02:16;26.80;48.00
5334;DHT22;2689;50.954;7.116;2023-07-16T14:04:44;26.50;48.80
5334;DHT22;2689;50.954;7.116;2023-07-16T14:07:11;26.50;49.40
5334;DHT22;2689;50.954;7.116;2023-07-16T14:09:37;26.90;48.70
5334;DHT22;2689;50.954;7.116;2023-07-16T14:12:07;26.80;48.20
5334;DHT22;2689;50.954;7.116;2023-07-16T14:14:34;26.80;49.00
5334;DHT22;2689;50.954;7.116;2023-07-16T14:17:03;26.80;48.30
5334;DHT22;2689;50.954;7.116;2023-07-16T14:19:30;26.70;48.40
5334;DHT22;2689;50.954;7.116;2023-07-16T14:21:56;26.60;49.00
5334;DHT22;2689;50.954;7.116;2023-07-16T14:24:23;26.60;48.70
5334;DHT22;2689;50.954;7.116;2023-07-16T14:26:50;26.70;49.00
5334;DHT22;2689;50.954;7.116;2023-07-16T14:29:17;26.70;48.60
5334;DHT22;2689;50.954;7.116;2023-07-16T14:31:43;26.60;48.10
5334;DHT22;2689;50.954;7.116;2023-07-16T14:34:12;26.50;48.90
5334;DHT22;2689;50.954;7.116;2023-07-16T14:36:40;26.60;48.00
5334;DHT22;2689;50.954;7.116;2023-07-16T14:39:07;26.40;48.70
5334;DHT22;2689;50.954;7.116;2023-07-16T14:41:34;26.30;49.50
5334;DHT22;2689;50.954;7.116;2023-07-16T14:44:01;26.40;49.00
5334;DHT22;2689;50.954;7.116;2023-07-16T14:46:28;26.50;47.90
5334;DHT22;2689;50.954;7.116;2023-07-16T14:48:55;26.50;48.00
5334;DHT22;2689;50.954;7.116;2023-07-16T14:51:27;26.50;48.40
5334;DHT22;2689;50.954;7.116;2023-07-16T14:53:55;26.50;48.50
5334;DHT22;2689;50.954;7.116;2023-07-16T14:56:23;26.40;48.60
5334;DHT22;2689;50.954;7.116;2023-07-16T14:58:52;26.50;48.80
5334;DHT22;2689;50.954;7.116;2023-07-16T15:01:18;26.40;48.40
5334;DHT22;2689;50.954;7.116;2023-07-16T15:03:47;26.30;48.70
5334;DHT22;2689;50.954;7.116;2023-07-16T15:06:14;26.20;48.00
5334;DHT22;2689;50.954;7.116;2023-07-16T15:08:42;26.30;48.40
5334;DHT22;2689;50.954;7.116;2023-07-16T15:11:09;26.40;48.10
5334;DHT22;2689;50.954;7.116;2023-07-16T15:13:36;26.60;48.20
5334;DHT22;2689;50.954;7.116;2023-07-16T15:16:05;26.60;47.90
5334;DHT22;2689;50.954;7.116;2023-07-16T15:18:33;26.80;47.80
5334;DHT22;2689;50.954;7.116;2023-07-16T15:21:01;26.80;47.30
5334;DHT22;2689;50.954;7.116;2023-07-16T15:23:28;26.70;47.40
5334;DHT22;2689;50.954;7.116;2023-07-16T15:26:03;26.60;47.80
5334;DHT22;2689;50.954;7.116;2023-07-16T15:28:30;26.50;48.10
5334;DHT22;2689;50.954;7.116;2023-07-16T15:31:00;26.40;48.90
5334;DHT22;2689;50.954;7.116;2023-07-16T15:33:27;26.50;49.10
5334;DHT22;2689;50.954;7.116;2023-07-16T15:35:55;26.50;48.60
5334;DHT22;2689;50.954;7.116;2023-07-16T15:38:22;26.60;48.50
5334;DHT22;2689;50.954;7.116;2023-07-16T15:40:48;26.50;48.00
5334;DHT22;2689;50.954;7.116;2023-07-16T15:43:16;26.60;47.10
5334;DHT22;2689;50.954;7.116;2023-07-16T15:45:43;26.60;47.00
5334;DHT22;2689;50.954;7.116;2023-07-16T15:48:10;26.50;46.60
5334;DHT22;2689;50.954;7.116;2023-07-16T15:50:38;26.40;47.30
5334;DHT22;2689;50.954;7.116;2023-07-16T15:53:05;26.20;47.90
5334;DHT22;2689;50.954;7.116;2023-07-16T15:55:31;26.10;48.80
5334;DHT22;2689;50.954;7.116;2023-07-16T15:57:58;26.10;48.90
5334;DHT22;2689;50.954;7.116;2023-07-16T16:00:26;26.10;48.70
5334;DHT22;2689;50.954;7.116;2023-07-16T16:02:53;26.00;49.30
5334;DHT22;2689;50.954;7.116;2023-07-16T16:05:24;26.00;49.10